createdAt,value
2023-05-24T00:01:21.328Z,0
2023-05-24T00:06:22.877Z,0
2023-05-24T00:11:24.561Z,0
2023-05-24T00:16:26.378Z,0
2023-05-24T00:21:27.895Z,0
2023-05-24T00:26:29.792Z,0
2023-05-24T00:31:31.591Z,0
2023-05-24T00:36:33.420Z,0
2023-05-24T00:41:35.209Z,0
2023-05-24T00:46:36.973Z,0
2023-05-24T00:51:38.705Z,0.88715
2023-05-24T00:56:40.268Z,0
2023-05-24T01:01:42.114Z,0.88715
2023-05-24T01:06:43.769Z,0
2023-05-24T01:11:45.509Z,0
2023-05-24T01:16:47.188Z,0
2023-05-24T01:21:48.866Z,0
2023-05-24T01:26:50.505Z,0
2023-05-24T01:31:52.230Z,0
2023-05-24T01:36:54.066Z,0
2023-05-24T01:41:55.970Z,0
2023-05-24T01:46:57.833Z,0
2023-05-24T01:51:59.562Z,0
2023-05-24T01:57:01.186Z,0.88715
2023-05-24T02:02:02.882Z,0
2023-05-24T02:07:04.800Z,0
2023-05-24T02:12:06.378Z,0
2023-05-24T02:17:07.993Z,0
2023-05-24T02:22:09.596Z,0
2023-05-24T02:27:11.274Z,0
2023-05-24T02:32:12.829Z,0
2023-05-24T02:37:14.560Z,0.88715
2023-05-24T02:42:15.889Z,0
2023-05-24T02:47:17.320Z,0
2023-05-24T02:52:18.614Z,0
2023-05-24T02:57:20.419Z,0
2023-05-24T03:02:22.059Z,0
2023-05-24T03:07:23.666Z,0
2023-05-24T03:12:25.706Z,0
2023-05-24T03:17:27.525Z,0.88715
2023-05-24T03:22:29.384Z,0
2023-05-24T03:27:31.251Z,0
2023-05-24T03:32:32.779Z,0
2023-05-24T03:37:34.159Z,0.88715
2023-05-24T03:42:35.781Z,0
2023-05-24T03:47:37.356Z,0
2023-05-24T03:52:39.118Z,0
2023-05-24T03:57:41.142Z,0.88715
2023-05-24T04:02:43.079Z,0.88715
2023-05-24T04:07:44.781Z,0.88715
2023-05-24T04:12:46.808Z,0.88715
2023-05-24T04:17:48.705Z,0.88715
2023-05-24T04:22:50.344Z,1.16185
2023-05-24T04:27:52.130Z,0.8296
2023-05-24T04:32:54.118Z,2.01475
2023-05-24T04:37:55.878Z,4.7767
2023-05-24T04:42:57.758Z,18.53445
2023-05-24T04:47:59.466Z,26.24335
2023-05-24T04:53:01.212Z,41.7163
2023-05-24T04:58:03.222Z,61.83665
2023-05-24T05:03:04.997Z,79.81775
2023-05-24T05:08:07.023Z,100.73105
2023-05-24T05:13:08.948Z,126.3469
2023-05-24T05:18:10.562Z,145.36055
2023-05-24T05:23:12.171Z,164.7431
2023-05-24T05:28:13.690Z,181.9864
2023-05-24T05:33:15.122Z,197.09045
2023-05-24T05:38:16.514Z,210.6086
2023-05-24T05:43:18.092Z,215.20085
2023-05-24T05:48:19.649Z,226.3953
2023-05-24T05:53:21.102Z,240.8357
2023-05-24T05:58:22.843Z,249.522
2023-05-24T06:03:24.584Z,255.645
2023-05-24T06:08:26.024Z,272.2798
2023-05-24T06:13:27.492Z,284.5258
2023-05-24T06:18:28.846Z,318.5332
2023-05-24T06:23:30.400Z,335.0577
2023-05-24T06:28:32.216Z,372.67995
2023-05-24T06:38:35.163Z,511.6246
2023-05-24T06:43:36.959Z,576.30215
2023-05-24T06:48:38.557Z,617.55825
2023-05-24T06:53:40.018Z,639.0629
2023-05-24T06:58:41.715Z,668.073
2023-05-24T07:03:43.634Z,677.81085
2023-05-24T07:08:45.227Z,696.41945
2023-05-24T07:13:47.244Z,696.4936
2023-05-24T07:18:48.852Z,703.66815
2023-05-24T07:29:00.906Z,748.7787
2023-05-24T07:34:02.601Z,766.041
2023-05-24T07:39:04.072Z,783.5429
2023-05-24T07:44:05.643Z,800.5656
2023-05-24T07:49:07.118Z,808.902
2023-05-24T07:54:08.869Z,823.2321
2023-05-24T07:59:10.231Z,868.7477
2023-05-24T08:04:11.514Z,886.3789
2023-05-24T08:09:12.812Z,920.1657
2023-05-24T08:14:14.935Z,946.05915
2023-05-24T08:19:16.531Z,967.5448
2023-05-24T08:24:17.912Z,962.38205
2023-05-24T08:29:19.397Z,993.71585
2023-05-24T08:34:20.851Z,1032.51895
2023-05-24T08:39:22.357Z,1050.90695
2023-05-24T08:44:23.984Z,1070.14305
2023-05-24T08:49:25.483Z,1084.9162
2023-05-24T08:54:27.282Z,1095.65045
2023-05-24T08:59:29.280Z,1102.29065
2023-05-24T09:04:30.925Z,1122.6886
2023-05-24T09:09:32.557Z,1142.9021
2023-05-24T09:14:34.658Z,1168.68525
2023-05-24T09:19:36.238Z,1199.3554
2023-05-24T09:24:37.543Z,1193.7496
2023-05-24T09:29:39.081Z,1229.45505
2023-05-24T09:34:40.986Z,1245.13145
2023-05-24T09:39:42.494Z,1264.552
2023-05-24T09:44:44.249Z,1294.9084
2023-05-24T09:49:48.547Z,1318.60745
2023-05-24T09:54:51.123Z,1352.4494
2023-05-24T09:59:52.821Z,1376.01915
2023-05-24T10:04:54.731Z,1395.55
2023-05-24T10:09:56.248Z,1421.0194
2023-05-24T10:14:57.890Z,1460.48615
2023-05-24T10:19:59.238Z,1488.14995
2023-05-24T10:25:00.809Z,1515.0208
2023-05-24T10:30:02.315Z,1562.9894
2023-05-24T10:35:03.735Z,1588.14505
2023-05-24T10:40:05.312Z,1627.40835
2023-05-24T10:45:07.174Z,1652.1761
2023-05-24T10:50:08.645Z,1677.33175
2023-05-24T10:55:10.094Z,1698.98285
2023-05-24T11:00:15.583Z,1733.59875
2023-05-24T11:05:21.959Z,1747.04275
2023-05-24T11:10:23.439Z,1770.7038
2023-05-24T11:15:24.993Z,1806.99875
2023-05-24T11:20:26.574Z,1820.33245
2023-05-24T11:25:27.944Z,1666.0766
2023-05-24T11:30:29.477Z,1850.89045
2023-05-24T11:35:30.957Z,1875.4186
2023-05-24T11:40:32.329Z,1890.9277
2023-05-24T11:45:33.907Z,1918.4432
2023-05-24T11:50:45.653Z,1913.5372
2023-05-24T11:55:50.434Z,1937.69645
2023-05-24T12:00:51.929Z,1948.68745
2023-05-24T12:05:53.276Z,1954.03465
2023-05-24T12:10:54.832Z,1976.2201
2023-05-24T12:15:57.022Z,1979.31775
2023-05-24T12:20:58.669Z,1989.93985
2023-05-24T12:26:00.224Z,1994.80785
2023-05-24T12:31:01.944Z,1992.2807
2023-05-24T12:36:03.390Z,1990.5465
2023-05-24T12:46:09.523Z,1974.66665
2023-05-24T12:51:11.054Z,1973.1169
2023-05-24T12:56:12.506Z,1971.9912
2023-05-24T13:01:14.057Z,1959.247
2023-05-24T13:06:15.506Z,1944.3084
2023-05-24T13:11:16.973Z,1929.1112
2023-05-24T13:16:18.910Z,1913.0659
2023-05-24T13:21:20.481Z,1889.12725
2023-05-24T13:26:22.002Z,1862.31155
2023-05-24T13:31:23.590Z,1832.19475
2023-05-24T13:36:25.072Z,1791.56615
2023-05-24T13:41:26.648Z,1724.27015
2023-05-24T13:46:28.237Z,1686.81335
2023-05-24T13:51:30.075Z,1613.87355
2023-05-24T13:56:31.419Z,1514.52495
2023-05-24T14:01:32.967Z,1398.4864
2023-05-24T14:06:34.798Z,1282.44785
2023-05-24T14:11:36.508Z,1157.66785
2023-05-24T14:16:38.481Z,997.0911
2023-05-24T14:21:40.483Z,816.8922
2023-05-24T14:26:42.235Z,561.7797
2023-05-24T14:31:44.221Z,376.5798
2023-05-24T14:36:46.017Z,321.61925
2023-05-24T14:41:47.743Z,268.9291
2023-05-24T14:46:49.598Z,237.04195
2023-05-24T14:51:51.004Z,209.0644
2023-05-24T14:56:52.472Z,156.39325
2023-05-24T15:01:54.172Z,122.1634
2023-05-24T15:06:55.487Z,92.34135
2023-05-24T15:11:57.071Z,70.2472
2023-05-24T15:16:58.620Z,50.0527
2023-05-24T15:22:00.079Z,32.9197
2023-05-24T15:27:01.979Z,16.8934
2023-05-24T15:32:03.774Z,8.63115
2023-05-24T15:37:05.619Z,2.84435
2023-05-24T15:42:07.225Z,1.2444
2023-05-24T15:47:08.669Z,2.3237
2023-05-24T15:52:10.373Z,0
2023-05-24T15:57:12.064Z,0.88715
2023-05-24T16:02:13.620Z,0.88715
2023-05-24T16:07:15.115Z,0
2023-05-24T16:12:16.625Z,0
2023-05-24T16:17:18.185Z,0
2023-05-24T16:22:19.690Z,0
2023-05-24T16:27:21.189Z,0
2023-05-24T16:32:22.535Z,0
2023-05-24T16:37:24.010Z,0
2023-05-24T16:42:25.508Z,0
2023-05-24T16:47:29.480Z,0
2023-05-24T16:52:31.744Z,0
2023-05-24T16:57:33.225Z,0
2023-05-24T17:02:34.683Z,0.88715
2023-05-24T17:07:36.245Z,0
2023-05-24T17:12:37.876Z,0
2023-05-24T17:17:39.383Z,0
2023-05-24T17:22:40.896Z,0
2023-05-24T17:27:42.497Z,0
2023-05-24T17:32:43.978Z,0.88715
2023-05-24T17:37:45.307Z,0
2023-05-24T17:42:46.724Z,0
2023-05-24T17:47:48.230Z,0
2023-05-24T17:52:49.689Z,0
2023-05-24T17:57:51.239Z,0
2023-05-24T18:02:52.711Z,0
2023-05-24T18:07:54.088Z,0.88715
2023-05-24T18:12:55.623Z,0
2023-05-24T18:17:57.046Z,0
2023-05-24T18:22:58.808Z,0
2023-05-24T18:28:00.652Z,0
2023-05-24T18:33:07.786Z,0
2023-05-24T18:38:10.177Z,0
2023-05-24T18:43:12.030Z,0
2023-05-24T18:48:13.853Z,0
2023-05-24T18:53:15.271Z,0
2023-05-24T18:58:16.746Z,0.88715
2023-05-24T19:03:18.285Z,0
2023-05-24T19:08:19.800Z,0
2023-05-24T19:13:21.459Z,0
2023-05-24T19:18:22.845Z,0
2023-05-24T19:23:24.685Z,0
2023-05-24T19:28:26.602Z,0
2023-05-24T19:33:27.979Z,0
2023-05-24T19:38:29.764Z,0
2023-05-24T19:43:31.634Z,0
2023-05-24T19:48:33.422Z,0
2023-05-24T19:53:35.199Z,0
2023-05-24T19:58:37.076Z,0
2023-05-24T20:03:39.051Z,0
2023-05-24T20:08:40.637Z,0
2023-05-24T20:13:42.011Z,0.88715
2023-05-24T20:18:43.504Z,0
2023-05-24T20:23:44.904Z,0
2023-05-24T20:28:46.471Z,0
2023-05-24T20:33:48.108Z,0
2023-05-24T20:38:49.612Z,0.88715
2023-05-24T20:43:51.209Z,0
2023-05-24T20:48:52.944Z,0
2023-05-24T20:53:54.604Z,0
2023-05-24T20:58:56.534Z,0
2023-05-24T21:03:58.005Z,0
2023-05-24T21:08:59.453Z,0
2023-05-24T21:14:00.966Z,0
2023-05-24T21:19:02.508Z,0
2023-05-24T21:24:04.406Z,0
2023-05-24T21:29:05.887Z,0
2023-05-24T21:34:07.354Z,0
2023-05-24T21:39:08.951Z,0
2023-05-24T21:44:10.860Z,0
2023-05-24T21:49:12.651Z,0
2023-05-24T21:54:14.486Z,0
2023-05-24T22:04:16.654Z,0
2023-05-24T22:09:18.260Z,0
2023-05-24T22:14:19.813Z,0
2023-05-24T22:19:32.300Z,0
2023-05-24T22:24:41.621Z,0
2023-05-24T22:29:43.386Z,0
2023-05-24T22:34:45.126Z,0
2023-05-24T22:39:46.738Z,0.88715
2023-05-24T22:44:48.627Z,0
2023-05-24T22:49:50.220Z,0
2023-05-24T22:54:51.900Z,0
2023-05-24T22:59:53.862Z,0
2023-05-24T23:04:55.691Z,0
2023-05-24T23:09:57.533Z,0
2023-05-24T23:14:59.477Z,0
2023-05-24T23:20:01.342Z,0
2023-05-24T23:25:03.152Z,0
2023-05-24T23:30:04.789Z,0.88715
2023-05-24T23:35:06.446Z,0
2023-05-24T23:40:08.239Z,0
2023-05-24T23:45:10.223Z,0.88715
2023-05-24T23:50:11.954Z,0
2023-05-24T23:55:13.954Z,0
